createdAt,value
2017-11-24T00:01:46.800Z,46.88
2017-11-24T00:04:14.619Z,46.53
2017-11-24T00:06:42.143Z,46.29
2017-11-24T00:09:09.703Z,46.68
2017-11-24T00:11:37.311Z,46.36
2017-11-24T00:14:04.868Z,47.19
2017-11-24T00:16:32.429Z,46.21
2017-11-24T00:18:59.986Z,46.34
2017-11-24T00:21:27.546Z,46.70
2017-11-24T00:23:55.105Z,46.91
2017-11-24T00:26:23.059Z,46.35
2017-11-24T00:28:50.581Z,46.06
2017-11-24T00:31:18.108Z,46.53
2017-11-24T00:33:45.675Z,45.85
2017-11-24T00:36:13.196Z,45.46
2017-11-24T00:38:40.715Z,45.82
2017-11-24T00:41:08.633Z,46.19
2017-11-24T00:43:36.216Z,46.95
2017-11-24T00:46:03.753Z,46.77
2017-11-24T00:48:31.311Z,46.59
2017-11-24T00:50:58.879Z,46.95
2017-11-24T00:53:26.429Z,46.67
2017-11-24T00:55:54.180Z,46.40
2017-11-24T00:58:21.701Z,45.86
2017-11-24T01:00:49.224Z,46.73
2017-11-24T01:03:16.978Z,46.40
2017-11-24T01:05:44.533Z,46.15
2017-11-24T01:08:12.064Z,45.99
2017-11-24T01:10:39.958Z,46.82
2017-11-24T01:13:07.522Z,46.50
2017-11-24T01:15:35.047Z,46.64
2017-11-24T01:18:02.736Z,47.23
2017-11-24T01:20:30.251Z,47.66
2017-11-24T01:22:57.768Z,47.76
2017-11-24T01:25:25.620Z,48.32
2017-11-24T01:27:53.181Z,49.21
2017-11-24T01:30:20.756Z,48.73
2017-11-24T01:32:48.587Z,48.33
2017-11-24T01:35:16.164Z,48.28
2017-11-24T01:37:43.722Z,47.87
2017-11-24T01:40:11.292Z,48.51
2017-11-24T01:42:38.842Z,48.60
2017-11-24T01:45:06.400Z,48.38
2017-11-24T01:47:34.216Z,48.42
2017-11-24T01:50:01.730Z,48.78
2017-11-24T01:52:29.281Z,48.44
2017-11-24T01:54:57.249Z,48.69
2017-11-24T01:57:24.809Z,48.85
2017-11-24T01:59:52.320Z,49.07
2017-11-24T02:02:19.929Z,48.64
2017-11-24T02:04:47.521Z,49.00
2017-11-24T02:07:15.046Z,48.48
2017-11-24T02:09:42.891Z,48.40
2017-11-24T02:12:10.411Z,48.52
2017-11-24T02:14:37.927Z,47.95
2017-11-24T02:17:05.646Z,48.38
2017-11-24T02:19:33.169Z,48.69
2017-11-24T02:22:00.707Z,48.78
2017-11-24T02:24:28.574Z,49.52
2017-11-24T02:26:58.774Z,49.40
2017-11-24T02:29:26.298Z,49.35
2017-11-24T02:31:54.200Z,49.14
2017-11-24T02:34:21.821Z,49.94
2017-11-24T02:36:49.345Z,50.65
2017-11-24T02:39:17.080Z,50.09
2017-11-24T02:41:44.663Z,50.49
2017-11-24T02:44:12.340Z,50.10
2017-11-24T02:46:39.900Z,50.33
2017-11-24T02:49:07.428Z,50.20
2017-11-24T02:51:35.001Z,50.37
2017-11-24T02:54:02.571Z,50.92
2017-11-24T02:56:30.103Z,50.63
2017-11-24T02:58:57.618Z,50.78
2017-11-24T03:01:25.171Z,50.08
2017-11-24T03:03:52.702Z,50.22
2017-11-24T03:06:20.252Z,50.03
2017-11-24T03:08:47.950Z,50.21
2017-11-24T03:11:15.471Z,50.28
2017-11-24T03:13:43.075Z,50.19
2017-11-24T03:16:11.001Z,50.70
2017-11-24T03:18:38.563Z,50.07
2017-11-24T03:21:06.118Z,50.27
2017-11-24T03:23:33.703Z,49.80
2017-11-24T03:26:01.212Z,49.95
2017-11-24T03:28:28.723Z,50.09
2017-11-24T03:30:56.293Z,50.15
2017-11-24T03:33:23.815Z,50.22
2017-11-24T03:35:51.372Z,49.78
2017-11-24T03:38:18.946Z,49.99
2017-11-24T03:40:46.490Z,49.87
2017-11-24T03:43:14.047Z,50.06
2017-11-24T03:45:41.755Z,50.20
2017-11-24T03:48:09.279Z,49.80
2017-11-24T03:50:36.842Z,49.40
2017-11-24T03:53:04.593Z,49.80
2017-11-24T03:55:32.152Z,50.09
2017-11-24T03:57:59.720Z,50.50
2017-11-24T04:00:27.447Z,50.10
2017-11-24T04:02:54.976Z,50.22
2017-11-24T04:05:22.506Z,50.43
2017-11-24T04:07:50.151Z,49.96
2017-11-24T04:10:17.668Z,50.55
2017-11-24T04:12:45.183Z,50.28
2017-11-24T04:15:13.157Z,50.79
2017-11-24T04:17:40.675Z,51.14
2017-11-24T04:20:08.191Z,50.37
2017-11-24T04:22:35.764Z,50.69
2017-11-24T04:25:03.292Z,51.01
2017-11-24T04:27:30.839Z,50.80
2017-11-24T04:29:58.595Z,50.88
2017-11-24T04:32:26.153Z,50.81
2017-11-24T04:34:53.892Z,50.73
2017-11-24T04:37:21.762Z,50.58
2017-11-24T04:39:49.272Z,50.57
2017-11-24T04:42:16.789Z,50.06
2017-11-24T04:44:44.460Z,51.00
2017-11-24T04:47:12.040Z,50.96
2017-11-24T04:49:39.578Z,50.79
2017-11-24T04:52:07.239Z,50.48
2017-11-24T04:54:34.761Z,50.47
2017-11-24T04:57:02.297Z,49.92
2017-11-24T04:59:29.929Z,49.73
2017-11-24T05:01:57.475Z,49.46
2017-11-24T05:04:25.035Z,49.51
2017-11-24T05:06:52.580Z,50.12
2017-11-24T05:09:20.096Z,50.60
2017-11-24T05:11:47.614Z,49.94
2017-11-24T05:14:15.368Z,50.15
2017-11-24T05:16:43.036Z,50.47
2017-11-24T05:19:10.593Z,50.52
2017-11-24T05:21:38.147Z,49.61
2017-11-24T05:24:05.709Z,49.75
2017-11-24T05:26:33.271Z,49.74
2017-11-24T05:29:00.912Z,49.14
2017-11-24T05:31:28.425Z,49.93
2017-11-24T05:33:55.949Z,49.30
2017-11-24T05:36:23.509Z,49.99
2017-11-24T05:38:51.066Z,49.32
2017-11-24T05:41:18.626Z,49.72
2017-11-24T05:43:46.390Z,49.36
2017-11-24T05:46:13.967Z,49.78
2017-11-24T05:48:41.489Z,49.72
2017-11-24T05:51:09.168Z,48.98
2017-11-24T05:53:36.728Z,49.32
2017-11-24T05:56:04.287Z,49.80
2017-11-24T05:58:32.235Z,49.09
2017-11-24T06:00:59.763Z,50.27
2017-11-24T06:03:27.287Z,49.22
2017-11-24T06:05:54.852Z,49.38
2017-11-24T06:08:22.377Z,49.93
2017-11-24T06:10:49.931Z,49.79
2017-11-24T06:13:17.508Z,50.35
2017-11-24T06:15:45.076Z,50.17
2017-11-24T06:18:12.654Z,50.21
2017-11-24T06:20:40.225Z,51.07
2017-11-24T06:23:07.748Z,50.44
2017-11-24T06:25:35.304Z,50.54
2017-11-24T06:28:02.856Z,50.30
2017-11-24T06:30:30.428Z,50.92
2017-11-24T06:32:57.981Z,50.48
2017-11-24T06:35:25.743Z,50.83
2017-11-24T06:37:53.303Z,51.13
2017-11-24T06:40:20.870Z,50.51
2017-11-24T06:42:48.626Z,50.90
2017-11-24T06:45:16.187Z,50.82
2017-11-24T06:47:43.744Z,50.99
2017-11-24T06:50:11.319Z,50.73
2017-11-24T06:52:38.845Z,50.79
2017-11-24T06:55:06.377Z,51.82
2017-11-24T06:57:33.925Z,51.26
2017-11-24T07:00:01.486Z,51.09
2017-11-24T07:02:29.019Z,52.02
2017-11-24T07:04:56.760Z,51.73
2017-11-24T07:07:24.280Z,51.62
2017-11-24T07:09:51.801Z,51.48
2017-11-24T07:12:19.363Z,51.42
2017-11-24T07:14:46.888Z,51.84
2017-11-24T07:17:14.412Z,51.72
2017-11-24T07:19:42.015Z,51.77
2017-11-24T07:22:09.553Z,51.67
2017-11-24T07:24:37.089Z,52.30
2017-11-24T07:27:04.688Z,51.41
2017-11-24T07:29:32.260Z,51.42
2017-11-24T07:31:59.807Z,51.25
2017-11-24T07:34:27.452Z,51.17
2017-11-24T07:36:54.982Z,51.30
2017-11-24T07:39:22.503Z,50.98
2017-11-24T07:41:50.076Z,50.71
2017-11-24T07:44:17.603Z,51.85
2017-11-24T07:46:45.137Z,51.65
2017-11-24T07:49:12.787Z,51.28
2017-11-24T07:51:40.345Z,51.00
2017-11-24T07:54:07.884Z,50.76
2017-11-24T07:56:35.705Z,50.52
2017-11-24T07:59:03.578Z,50.15
2017-11-24T08:01:31.849Z,50.59
2017-11-24T08:03:59.718Z,50.61
2017-11-24T08:06:27.537Z,49.48
2017-11-24T08:08:55.482Z,50.27
2017-11-24T08:11:24.441Z,50.34
2017-11-24T08:13:52.204Z,49.83
2017-11-24T08:16:20.045Z,49.14
2017-11-24T08:18:49.239Z,49.17
2017-11-24T08:21:17.861Z,48.93
2017-11-24T08:23:45.614Z,47.72
2017-11-24T08:26:13.582Z,47.72
2017-11-24T08:28:43.191Z,48.00
2017-11-24T08:31:11.159Z,47.37
2017-11-24T08:33:39.128Z,46.60
2017-11-24T08:36:07.609Z,46.85
2017-11-24T08:38:35.183Z,46.84
2017-11-24T08:41:03.136Z,46.85
2017-11-24T08:43:30.720Z,46.51
2017-11-24T08:45:58.408Z,46.64
2017-11-24T08:48:31.983Z,46.41
2017-11-24T08:50:59.858Z,46.58
2017-11-24T08:53:28.532Z,46.57
2017-11-24T08:55:57.538Z,45.83
2017-11-24T08:58:25.164Z,46.42
2017-11-24T09:00:53.903Z,45.93
2017-11-24T09:03:22.022Z,45.40
2017-11-24T09:05:50.215Z,45.66
2017-11-24T09:08:18.054Z,44.50
2017-11-24T09:10:46.338Z,43.71
2017-11-24T09:13:16.380Z,39.55
2017-11-24T09:15:44.163Z,39.00
2017-11-24T09:18:12.090Z,40.64
2017-11-24T09:20:40.670Z,41.64
2017-11-24T09:23:08.236Z,37.70
2017-11-24T09:25:36.100Z,31.12
2017-11-24T09:28:03.991Z,27.53
2017-11-24T09:30:33.673Z,25.58
2017-11-24T09:33:01.538Z,26.80
2017-11-24T09:35:29.714Z,26.33
2017-11-24T09:37:57.477Z,26.26
2017-11-24T09:40:25.866Z,26.62
2017-11-24T09:43:00.212Z,31.52
2017-11-24T09:45:31.981Z,33.73
2017-11-24T09:48:01.976Z,30.25
2017-11-24T09:50:30.859Z,28.00
2017-11-24T09:52:59.318Z,26.91
2017-11-24T09:55:26.877Z,28.25
2017-11-24T09:57:54.623Z,31.35
2017-11-24T10:00:22.145Z,33.28
2017-11-24T10:02:49.672Z,31.55
2017-11-24T10:05:17.421Z,28.40
2017-11-24T10:07:44.990Z,27.87
2017-11-24T10:10:12.538Z,28.55
2017-11-24T10:12:40.124Z,26.78
2017-11-24T10:15:07.638Z,25.55
2017-11-24T10:17:35.163Z,25.26
2017-11-24T10:20:02.966Z,24.12
2017-11-24T10:22:36.106Z,23.77
2017-11-24T10:25:03.935Z,23.04
2017-11-24T10:27:31.504Z,21.67
2017-11-24T10:29:59.053Z,21.73
2017-11-24T10:32:26.817Z,21.51
2017-11-24T10:34:54.333Z,22.42
2017-11-24T10:37:21.856Z,21.37
2017-11-24T10:39:49.504Z,22.02
2017-11-24T10:42:17.053Z,22.56
2017-11-24T10:44:44.613Z,26.25
2017-11-24T10:47:12.168Z,28.20
2017-11-24T10:49:39.674Z,30.43
2017-11-24T10:52:07.203Z,30.47
2017-11-24T10:54:34.952Z,31.89
2017-11-24T10:57:02.529Z,29.14
2017-11-24T10:59:30.069Z,26.23
2017-11-24T11:01:57.628Z,22.37
2017-11-24T11:04:25.143Z,21.44
2017-11-24T11:06:52.659Z,22.63
2017-11-24T11:09:20.408Z,24.28
2017-11-24T11:11:47.968Z,22.26
2017-11-24T11:14:15.494Z,20.77
2017-11-24T11:16:43.276Z,21.42
2017-11-24T11:19:10.798Z,23.50
2017-11-24T11:21:38.319Z,23.33
2017-11-24T11:24:06.154Z,24.00
2017-11-24T11:26:33.671Z,25.84
2017-11-24T11:29:01.197Z,27.57
2017-11-24T11:31:29.055Z,29.67
2017-11-24T11:33:56.615Z,31.32
2017-11-24T11:36:24.177Z,31.03
2017-11-24T11:38:51.937Z,32.82
2017-11-24T11:41:19.495Z,35.08
2017-11-24T11:43:47.069Z,35.54
2017-11-24T11:46:14.628Z,36.84
2017-11-24T11:48:42.174Z,36.54
2017-11-24T11:51:09.724Z,36.86
2017-11-24T11:53:37.495Z,37.13
2017-11-24T11:56:05.085Z,37.23
2017-11-24T11:58:32.719Z,38.38
2017-11-24T12:01:00.284Z,38.89
2017-11-24T12:03:27.837Z,39.54
2017-11-24T12:05:55.406Z,40.07
2017-11-24T12:08:23.095Z,41.52
2017-11-24T12:10:50.619Z,43.18
2017-11-24T12:13:18.174Z,43.22
2017-11-24T12:15:45.938Z,44.67
2017-11-24T12:18:13.497Z,45.58
2017-11-24T12:20:41.075Z,45.66
2017-11-24T12:23:08.668Z,46.51
2017-11-24T12:25:36.188Z,47.78
2017-11-24T12:28:03.722Z,48.69
2017-11-24T12:30:31.700Z,50.34
2017-11-24T12:32:59.261Z,50.54
2017-11-24T12:35:26.780Z,51.75
2017-11-24T12:37:54.684Z,53.98
2017-11-24T12:40:22.200Z,54.80
2017-11-24T12:42:49.723Z,55.54
2017-11-24T12:45:17.476Z,57.25
2017-11-24T12:47:44.995Z,57.13
2017-11-24T12:50:12.512Z,57.52
2017-11-24T12:52:40.072Z,57.51
2017-11-24T12:55:07.601Z,57.10
2017-11-24T12:57:35.172Z,57.13
2017-11-24T13:00:02.739Z,56.89
2017-11-24T13:02:30.276Z,56.63
2017-11-24T13:04:58.882Z,56.91
2017-11-24T13:07:26.447Z,57.04
2017-11-24T13:09:53.980Z,58.01
2017-11-24T13:12:21.536Z,57.99
2017-11-24T13:14:49.484Z,59.29
2017-11-24T13:17:17.002Z,60.34
2017-11-24T13:19:44.521Z,60.57
2017-11-24T13:22:12.168Z,61.19
2017-11-24T13:24:39.845Z,62.31
2017-11-24T13:27:07.403Z,61.91
2017-11-24T13:29:35.153Z,62.88
2017-11-24T13:32:02.728Z,62.97
2017-11-24T13:34:30.389Z,64.08
2017-11-24T13:36:57.948Z,65.29
2017-11-24T13:39:25.507Z,65.06
2017-11-24T13:41:53.271Z,66.72
2017-11-24T13:44:21.225Z,65.36
2017-11-24T13:46:49.025Z,65.67
2017-11-24T13:49:16.780Z,64.97
2017-11-24T13:51:44.633Z,65.56
2017-11-24T13:54:12.188Z,65.23
2017-11-24T13:56:39.955Z,64.94
2017-11-24T13:59:07.720Z,64.31
2017-11-24T14:01:36.201Z,64.46
2017-11-24T14:04:03.719Z,64.26
2017-11-24T14:06:31.420Z,64.10
2017-11-24T14:08:59.073Z,64.07
2017-11-24T14:11:26.587Z,62.86
2017-11-24T14:13:54.303Z,63.20
2017-11-24T14:16:21.863Z,63.71
2017-11-24T14:18:49.443Z,63.38
2017-11-24T14:21:17.291Z,63.84
2017-11-24T14:23:44.864Z,63.58
2017-11-24T14:26:12.444Z,64.06
2017-11-24T14:28:39.979Z,63.71
2017-11-24T14:31:07.525Z,64.81
2017-11-24T14:33:35.040Z,63.70
2017-11-24T14:36:02.724Z,63.25
2017-11-24T14:38:30.244Z,63.57
2017-11-24T14:40:57.759Z,62.93
2017-11-24T14:43:25.423Z,63.17
2017-11-24T14:45:53.096Z,62.56
2017-11-24T14:48:28.834Z,62.44
2017-11-24T14:50:56.508Z,63.31
2017-11-24T14:53:24.363Z,63.81
2017-11-24T14:55:52.201Z,63.74
2017-11-24T14:58:19.798Z,64.46
2017-11-24T15:00:47.354Z,64.26
2017-11-24T15:03:14.956Z,64.11
2017-11-24T15:05:42.484Z,64.71
2017-11-24T15:08:10.331Z,64.14
2017-11-24T15:10:38.016Z,64.48
2017-11-24T15:13:05.535Z,63.89
2017-11-24T15:15:33.122Z,62.80
2017-11-24T15:18:00.875Z,63.05
2017-11-24T15:20:28.657Z,62.98
2017-11-24T15:22:56.200Z,63.71
2017-11-24T15:25:24.069Z,63.18
2017-11-24T15:27:51.595Z,63.00
2017-11-24T15:30:19.183Z,62.91
2017-11-24T15:32:46.845Z,62.55
2017-11-24T15:35:14.403Z,63.23
2017-11-24T15:37:41.952Z,63.29
2017-11-24T15:40:09.624Z,63.56
2017-11-24T15:42:37.183Z,63.70
2017-11-24T15:45:04.699Z,62.79
2017-11-24T15:47:32.304Z,64.50
2017-11-24T15:49:59.860Z,64.33
2017-11-24T15:52:27.626Z,64.10
2017-11-24T15:54:55.286Z,63.31
2017-11-24T15:57:22.950Z,63.43
2017-11-24T15:59:50.506Z,63.58
2017-11-24T16:02:18.372Z,64.42
2017-11-24T16:04:46.139Z,64.09
2017-11-24T16:07:13.708Z,64.04
2017-11-24T16:09:41.667Z,64.08
2017-11-24T16:12:09.226Z,64.14
2017-11-24T16:14:36.752Z,64.07
2017-11-24T16:17:04.853Z,64.04
2017-11-24T16:19:32.517Z,64.90
2017-11-24T16:22:00.230Z,64.37
2017-11-24T16:24:28.472Z,64.37
2017-11-24T16:26:56.319Z,64.76
2017-11-24T16:29:23.879Z,64.18
2017-11-24T16:31:51.675Z,63.68
2017-11-24T16:34:19.196Z,63.63
2017-11-24T16:36:46.865Z,64.17
2017-11-24T16:39:14.833Z,64.28
2017-11-24T16:41:42.595Z,64.57
2017-11-24T16:44:10.157Z,64.48
2017-11-24T16:46:37.923Z,64.08
2017-11-24T16:49:05.477Z,62.78
2017-11-24T16:51:33.036Z,62.72
2017-11-24T16:54:00.868Z,61.94
2017-11-24T16:56:28.403Z,62.60
2017-11-24T16:58:55.963Z,63.67
2017-11-24T17:01:23.886Z,63.78
2017-11-24T17:03:51.446Z,62.65
2017-11-24T17:06:19.108Z,62.86
2017-11-24T17:08:46.906Z,62.26
2017-11-24T17:11:14.542Z,62.40
2017-11-24T17:13:42.154Z,62.01
2017-11-24T17:16:11.005Z,62.83
2017-11-24T17:18:38.562Z,62.56
2017-11-24T17:21:06.207Z,61.51
2017-11-24T17:23:33.787Z,62.40
2017-11-24T17:26:01.343Z,61.86
2017-11-24T17:28:28.868Z,62.19
2017-11-24T17:30:56.440Z,61.38
2017-11-24T17:33:24.000Z,61.60
2017-11-24T17:35:52.481Z,61.75
2017-11-24T17:38:20.273Z,62.25
2017-11-24T17:40:48.212Z,61.89
2017-11-24T17:43:15.758Z,62.09
2017-11-24T17:45:43.339Z,61.89
2017-11-24T17:48:11.114Z,62.42
2017-11-24T17:50:38.960Z,62.59
2017-11-24T17:53:07.041Z,62.03
2017-11-24T17:55:34.693Z,62.53
2017-11-24T17:58:02.252Z,62.37
2017-11-24T18:00:29.871Z,62.37
2017-11-24T18:02:57.543Z,62.14
2017-11-24T18:05:25.093Z,62.45
2017-11-24T18:07:52.883Z,62.12
2017-11-24T18:10:20.664Z,62.37
2017-11-24T18:12:48.887Z,61.86
2017-11-24T18:15:16.600Z,61.71
2017-11-24T18:17:44.266Z,62.41
2017-11-24T18:20:11.856Z,62.25
2017-11-24T18:22:39.995Z,63.15
2017-11-24T18:25:07.831Z,62.64
2017-11-24T18:27:35.489Z,63.02
2017-11-24T18:30:03.497Z,62.86
2017-11-24T18:32:31.256Z,63.26
2017-11-24T18:34:58.883Z,62.66
2017-11-24T18:37:27.601Z,62.62
2017-11-24T18:39:55.468Z,62.52
2017-11-24T18:42:23.324Z,62.52
2017-11-24T18:44:51.107Z,62.28
2017-11-24T18:47:18.881Z,62.58
2017-11-24T18:49:46.544Z,61.87
2017-11-24T18:52:14.594Z,62.33
2017-11-24T18:54:42.473Z,62.57
2017-11-24T18:57:11.050Z,62.25
2017-11-24T18:59:38.920Z,62.35
2017-11-24T19:02:06.678Z,62.58
2017-11-24T19:04:34.444Z,64.07
2017-11-24T19:07:02.304Z,62.86
2017-11-24T19:09:29.964Z,63.14
2017-11-24T19:11:57.839Z,63.41
2017-11-24T19:14:25.741Z,63.77
2017-11-24T19:16:53.666Z,62.98
2017-11-24T19:19:21.283Z,63.14
2017-11-24T19:21:50.014Z,63.65
2017-11-24T19:24:17.675Z,64.22
2017-11-24T19:26:45.338Z,63.92
2017-11-24T19:29:13.312Z,63.84
2017-11-24T19:31:41.172Z,65.08
2017-11-24T19:34:09.216Z,64.27
2017-11-24T19:36:37.211Z,64.46
2017-11-24T19:39:04.979Z,64.80
2017-11-24T19:41:32.742Z,64.89
2017-11-24T19:44:00.558Z,65.09
2017-11-24T19:46:28.474Z,65.60
2017-11-24T19:48:56.136Z,65.44
2017-11-24T19:51:24.212Z,66.50
2017-11-24T19:53:52.093Z,65.87
2017-11-24T19:56:23.569Z,65.93
2017-11-24T19:58:51.464Z,66.14
2017-11-24T20:01:19.166Z,65.46
2017-11-24T20:03:46.919Z,65.43
2017-11-24T20:06:15.000Z,66.18
2017-11-24T20:08:42.955Z,66.74
2017-11-24T20:11:10.719Z,66.41
2017-11-24T20:13:38.699Z,65.75
2017-11-24T20:16:07.090Z,66.77
2017-11-24T20:18:34.788Z,65.75
2017-11-24T20:21:02.800Z,66.33
2017-11-24T20:23:30.671Z,65.97
2017-11-24T20:25:59.388Z,65.32
2017-11-24T20:28:28.449Z,66.04
2017-11-24T20:30:57.341Z,65.53
2017-11-24T20:33:25.108Z,65.71
2017-11-24T20:35:52.865Z,65.34
2017-11-24T20:38:21.543Z,66.23
2017-11-24T20:41:01.167Z,66.46
2017-11-24T20:43:28.773Z,66.60
2017-11-24T20:45:56.311Z,66.75
2017-11-24T20:48:25.202Z,65.84
2017-11-24T20:50:52.790Z,65.01
2017-11-24T20:53:20.627Z,65.77
2017-11-24T20:55:48.492Z,65.94
2017-11-24T20:58:16.096Z,65.55
2017-11-24T21:00:43.713Z,64.51
2017-11-24T21:03:11.747Z,66.42
2017-11-24T21:05:39.293Z,64.96
2017-11-24T21:08:06.952Z,66.00
2017-11-24T21:10:34.795Z,65.23
2017-11-24T21:13:02.415Z,66.31
2017-11-24T21:15:30.093Z,65.05
2017-11-24T21:17:58.045Z,65.65
2017-11-24T21:20:25.836Z,65.25
2017-11-24T21:22:53.590Z,64.71
2017-11-24T21:25:21.375Z,64.99
2017-11-24T21:27:49.123Z,64.17
2017-11-24T21:30:16.889Z,64.06
2017-11-24T21:32:44.678Z,64.99
2017-11-24T21:35:12.212Z,65.68
2017-11-24T21:37:39.902Z,66.45
2017-11-24T21:40:13.158Z,66.29
2017-11-24T21:42:40.712Z,66.61
2017-11-24T21:45:08.483Z,65.10
2017-11-24T21:47:36.308Z,65.56
2017-11-24T21:50:04.082Z,64.63
2017-11-24T21:52:31.879Z,65.03
2017-11-24T21:54:59.725Z,64.27
2017-11-24T21:57:27.507Z,65.45
2017-11-24T21:59:55.098Z,65.23
2017-11-24T22:02:22.949Z,66.04
2017-11-24T22:04:50.597Z,65.33
2017-11-24T22:07:18.360Z,64.70
2017-11-24T22:09:46.123Z,66.00
2017-11-24T22:12:13.666Z,66.00
2017-11-24T22:14:41.184Z,66.49
2017-11-24T22:17:09.071Z,64.82
2017-11-24T22:19:36.620Z,64.09
2017-11-24T22:22:04.282Z,65.13
2017-11-24T22:24:32.029Z,64.10
2017-11-24T22:26:59.878Z,63.61
2017-11-24T22:29:27.721Z,63.73
2017-11-24T22:31:55.691Z,63.81
2017-11-24T22:34:23.383Z,63.77
2017-11-24T22:36:51.117Z,65.26
2017-11-24T22:39:18.983Z,65.36
2017-11-24T22:41:46.754Z,64.84
2017-11-24T22:44:14.612Z,64.26
2017-11-24T22:46:42.685Z,65.12
2017-11-24T22:49:10.346Z,64.28
2017-11-24T22:51:37.908Z,63.89
2017-11-24T22:54:05.754Z,63.61
2017-11-24T22:56:33.329Z,64.52
2017-11-24T22:59:00.881Z,63.94
2017-11-24T23:01:28.474Z,63.49
2017-11-24T23:03:55.992Z,63.52
2017-11-24T23:06:23.511Z,63.30
2017-11-24T23:08:51.221Z,63.87
2017-11-24T23:11:18.747Z,63.87
2017-11-24T23:13:46.260Z,64.01
2017-11-24T23:16:13.833Z,63.19
2017-11-24T23:18:41.361Z,64.15
2017-11-24T23:21:08.922Z,63.40
2017-11-24T23:23:36.864Z,62.98
2017-11-24T23:26:04.384Z,61.78
2017-11-24T23:28:31.916Z,62.90
2017-11-24T23:30:59.759Z,62.76
2017-11-24T23:33:27.332Z,63.30
2017-11-24T23:35:55.117Z,62.27
2017-11-24T23:38:22.999Z,63.19
2017-11-24T23:40:50.520Z,62.95
2017-11-24T23:43:18.081Z,63.19
2017-11-24T23:45:45.637Z,61.76
2017-11-24T23:48:13.198Z,61.81
2017-11-24T23:50:40.759Z,61.70
2017-11-24T23:53:08.496Z,61.87
2017-11-24T23:55:36.015Z,62.15
2017-11-24T23:58:03.538Z,61.37
